John H Macmillan Jr — WDB9907 — position and weather

sailwx.info

Track history (hours):
 
Tides and Currents Weather Stations Pressure Air Temp Water Temp Dewpoint Dewpoint Depression Visibility Wind Speed Wind Dir Waves Ship Positions

John H Macmillan Jr

Owner: American River Transportation Company, St Louis, MO. More information available from US FCC via Universal Licensing System and Coast Guard Vessel Documentation Center.

Last reported at 2017-Sep-17 22:28 UTC. Time now 2017-Sep-21 03:33 UTC.
Position N 32°49' W 091°09'.

Length 55 m; draft 3.5 m.

Type: Ship (hazmat cat B). MMSI: 366984920.

Date/timePositionNaut miles runAvg speedWind from/ knotsBaromVisibWave heightAir tempDewpointWater temp
2017-Sep-17 22:28N 32°49' W 091°09'2 3.9
2017-Sep-17 22:00N 32°47' W 091°09'2 4.6
2017-Sep-17 21:30N 32°45' W 091°09'5 1.9
2017-Sep-17 18:59N 32°40' W 091°06'2 4.0
2017-Sep-17 18:30N 32°40' W 091°08'1 2.5
2017-Sep-17 18:00N 32°38' W 091°09'0 0.0
2017-Sep-17 17:30N 32°38' W 091°09'2 3.5
2017-Sep-17 17:00N 32°37' W 091°09'2 3.3
2017-Sep-17 16:30N 32°35' W 091°08'2 4.6
2017-Sep-17 16:00N 32°34' W 091°06'2 4.5
2017-Sep-17 15:30N 32°31' W 091°06'3 5.3
2017-Sep-17 15:00N 32°29' W 091°07'3 5.0
2017-Sep-17 14:30N 32°27' W 091°05'2 4.9
2017-Sep-17 14:00N 32°26' W 091°02'2 4.5
2017-Sep-17 13:30N 32°25' W 090°60'2 4.0
2017-Sep-17 13:00N 32°23' W 090°60'2 4.1
2017-Sep-17 12:30N 32°21' W 090°59'2 3.9
2017-Sep-17 12:00N 32°21' W 090°57'0 0.2
2017-Sep-17 11:30N 32°21' W 090°57'0 0.0
2017-Sep-17 11:00N 32°21' W 090°57'0 0.0
2017-Sep-17 10:30N 32°21' W 090°57'0 0.0
2017-Sep-17 10:00N 32°21' W 090°57'0 0.0
2017-Sep-17 09:30N 32°21' W 090°57'0 0.0
2017-Sep-17 09:00N 32°21' W 090°57'0 0.0
2017-Sep-17 08:30N 32°21' W 090°57'1 1.5
2017-Sep-17 08:00N 32°21' W 090°56'2 4.1
2017-Sep-17 07:30N 32°19' W 090°54'2 4.9
2017-Sep-17 07:00N 32°18' W 090°56'2 4.7
2017-Sep-17 06:30N 32°16' W 090°58'1 2.8
2017-Sep-17 06:00N 32°15' W 090°59'0 0.8
2017-Sep-17 05:30N 32°14' W 090°59'2 3.1
2017-Sep-17 05:00N 32°13' W 090°59'2 4.6
2017-Sep-17 04:30N 32°11' W 090°60'2 4.4
2017-Sep-17 04:00N 32°09' W 091°00'2 4.2
2017-Sep-17 03:30N 32°07' W 091°02'3 4.8
2017-Sep-17 02:48N 32°08' W 091°06'1 3.9
2017-Sep-17 02:30N 32°07' W 091°07'3 4.8
2017-Sep-17 01:55N 32°05' W 091°04'2 4.1
2017-Sep-17 01:30N 32°03' W 091°03'3 5.6
2017-Sep-17 01:00N 32°01' W 091°05'5 4.5
2017-Sep-16 23:50N 31°59' W 091°11'  
Track history (hours):
 
Tides and Currents Weather Stations Pressure Air Temp Water Temp Dewpoint Dewpoint Depression Visibility Wind Speed Wind Dir Waves Ship Positions

John H Macmillan Jr

Owner: American River Transportation Company, St Louis, MO. More information available from US FCC via Universal Licensing System and Coast Guard Vessel Documentation Center.

Last reported at 2017-Sep-17 22:28 UTC. Time now 2017-Sep-21 03:33 UTC.
Position N 32°49' W 091°09'.

Length 55 m; draft 3.5 m.

Type: Ship (hazmat cat B). MMSI: 366984920.

Date/timePositionNaut miles runAvg speedWind from/ knotsBaromVisibWave heightAir tempDewpointWater temp
2017-Sep-17 22:28N 32°49' W 091°09'2 3.9
2017-Sep-17 22:00N 32°47' W 091°09'2 4.6
2017-Sep-17 21:30N 32°45' W 091°09'5 1.9
2017-Sep-17 18:59N 32°40' W 091°06'2 4.0
2017-Sep-17 18:30N 32°40' W 091°08'1 2.5
2017-Sep-17 18:00N 32°38' W 091°09'0 0.0
2017-Sep-17 17:30N 32°38' W 091°09'2 3.5
2017-Sep-17 17:00N 32°37' W 091°09'2 3.3
2017-Sep-17 16:30N 32°35' W 091°08'2 4.6
2017-Sep-17 16:00N 32°34' W 091°06'2 4.5
2017-Sep-17 15:30N 32°31' W 091°06'3 5.3
2017-Sep-17 15:00N 32°29' W 091°07'3 5.0
2017-Sep-17 14:30N 32°27' W 091°05'2 4.9
2017-Sep-17 14:00N 32°26' W 091°02'2 4.5
2017-Sep-17 13:30N 32°25' W 090°60'2 4.0
2017-Sep-17 13:00N 32°23' W 090°60'2 4.1
2017-Sep-17 12:30N 32°21' W 090°59'2 3.9
2017-Sep-17 12:00N 32°21' W 090°57'0 0.2
2017-Sep-17 11:30N 32°21' W 090°57'0 0.0
2017-Sep-17 11:00N 32°21' W 090°57'0 0.0
2017-Sep-17 10:30N 32°21' W 090°57'0 0.0
2017-Sep-17 10:00N 32°21' W 090°57'0 0.0
2017-Sep-17 09:30N 32°21' W 090°57'0 0.0
2017-Sep-17 09:00N 32°21' W 090°57'0 0.0
2017-Sep-17 08:30N 32°21' W 090°57'1 1.5
2017-Sep-17 08:00N 32°21' W 090°56'2 4.1
2017-Sep-17 07:30N 32°19' W 090°54'2 4.9
2017-Sep-17 07:00N 32°18' W 090°56'2 4.7
2017-Sep-17 06:30N 32°16' W 090°58'1 2.8
2017-Sep-17 06:00N 32°15' W 090°59'0 0.8
2017-Sep-17 05:30N 32°14' W 090°59'2 3.1
2017-Sep-17 05:00N 32°13' W 090°59'2 4.6
2017-Sep-17 04:30N 32°11' W 090°60'2 4.4
2017-Sep-17 04:00N 32°09' W 091°00'2 4.2
2017-Sep-17 03:30N 32°07' W 091°02'3 4.8
2017-Sep-17 02:48N 32°08' W 091°06'1 3.9
2017-Sep-17 02:30N 32°07' W 091°07'3 4.8
2017-Sep-17 01:55N 32°05' W 091°04'2 4.1
2017-Sep-17 01:30N 32°03' W 091°03'3 5.6
2017-Sep-17 01:00N 32°01' W 091°05'5 4.5
2017-Sep-16 23:50N 31°59' W 091°11'  

Dump ship's entire track history